createdAt,value
2023-06-07T00:00:56.669Z,16.35
2023-06-07T00:03:23.230Z,16.23
2023-06-07T00:05:49.968Z,16.14
2023-06-07T00:08:16.372Z,16.27
2023-06-07T00:10:43.155Z,16.17
2023-06-07T00:13:10.072Z,16.29
2023-06-07T00:15:37.645Z,16.38
2023-06-07T00:18:04.262Z,16.53
2023-06-07T00:20:30.755Z,16.44
2023-06-07T00:22:57.275Z,16.43
2023-06-07T00:25:23.661Z,16.52
2023-06-07T00:27:50.096Z,16.60
2023-06-07T00:30:16.596Z,16.64
2023-06-07T00:32:43.193Z,16.67
2023-06-07T00:35:09.681Z,16.70
2023-06-07T00:37:36.095Z,16.73
2023-06-07T00:40:02.827Z,16.76
2023-06-07T00:42:29.607Z,16.75
2023-06-07T00:44:56.189Z,16.78
2023-06-07T00:47:22.575Z,16.78
2023-06-07T00:49:49.402Z,16.80
2023-06-07T00:52:16.101Z,16.80
2023-06-07T00:54:43.553Z,16.81
2023-06-07T00:57:10.005Z,16.83
2023-06-07T00:59:36.465Z,16.85
2023-06-07T01:02:03.212Z,16.83
2023-06-07T01:04:29.682Z,16.81
2023-06-07T01:06:56.146Z,16.79
2023-06-07T01:09:22.550Z,16.78
2023-06-07T01:11:48.972Z,16.70
2023-06-07T01:14:15.371Z,16.74
2023-06-07T01:16:41.893Z,16.70
2023-06-07T01:19:08.449Z,16.72
2023-06-07T01:21:36.838Z,16.70
2023-06-07T01:24:03.349Z,16.72
2023-06-07T01:26:29.810Z,16.74
2023-06-07T01:28:56.228Z,16.77
2023-06-07T01:31:22.663Z,16.77
2023-06-07T01:33:49.334Z,16.79
2023-06-07T01:36:16.047Z,16.80
2023-06-07T01:38:42.493Z,16.80
2023-06-07T01:41:09.045Z,16.81
2023-06-07T01:43:35.497Z,16.80
2023-06-07T01:46:02.022Z,16.82
2023-06-07T01:48:28.726Z,16.88
2023-06-07T01:50:55.166Z,16.66
2023-06-07T01:53:21.681Z,16.71
2023-06-07T01:55:48.212Z,16.80
2023-06-07T01:58:15.953Z,16.73
2023-06-07T02:00:42.376Z,16.72
2023-06-07T02:03:08.925Z,16.74
2023-06-07T02:05:35.402Z,16.75
2023-06-07T02:08:01.774Z,16.73
2023-06-07T02:10:28.180Z,16.74
2023-06-07T02:12:54.668Z,16.72
2023-06-07T02:15:28.390Z,16.71
2023-06-07T02:17:54.926Z,16.69
2023-06-07T02:20:21.418Z,16.72
2023-06-07T02:22:47.904Z,16.71
2023-06-07T02:25:14.277Z,16.58
2023-06-07T02:27:40.726Z,16.50
2023-06-07T02:30:07.271Z,16.39
2023-06-07T02:32:34.012Z,16.38
2023-06-07T02:35:00.573Z,16.50
2023-06-07T02:37:26.984Z,16.72
2023-06-07T02:39:53.423Z,16.73
2023-06-07T02:42:19.796Z,16.72
2023-06-07T02:44:46.269Z,16.77
2023-06-07T02:47:12.777Z,16.68
2023-06-07T02:49:39.485Z,16.59
2023-06-07T02:52:06.333Z,16.51
2023-06-07T02:54:32.708Z,16.56
2023-06-07T02:56:59.260Z,16.61
2023-06-07T02:59:25.692Z,16.59
2023-06-07T03:01:53.352Z,16.60
2023-06-07T03:04:19.837Z,16.62
2023-06-07T03:06:46.366Z,16.51
2023-06-07T03:09:12.753Z,16.44
2023-06-07T03:11:39.212Z,16.21
2023-06-07T03:14:05.642Z,16.17
2023-06-07T03:16:32.000Z,16.20
2023-06-07T03:18:58.428Z,16.07
2023-06-07T03:21:24.824Z,15.85
2023-06-07T03:23:51.608Z,16.05
2023-06-07T03:26:18.105Z,16.19
2023-06-07T03:28:44.575Z,16.16
2023-06-07T03:31:11.058Z,16.04
2023-06-07T03:33:37.606Z,16.20
2023-06-07T03:36:04.147Z,16.01
2023-06-07T03:38:30.500Z,15.95
2023-06-07T03:40:57.333Z,16.03
2023-06-07T03:43:23.877Z,16.09
2023-06-07T03:45:50.370Z,16.12
2023-06-07T03:48:16.912Z,16.22
2023-06-07T03:50:43.357Z,16.13
2023-06-07T03:53:09.767Z,16.27
2023-06-07T03:55:36.202Z,16.35
2023-06-07T03:58:02.594Z,16.29
2023-06-07T04:00:30.389Z,16.26
2023-06-07T04:02:57.025Z,16.27
2023-06-07T04:05:27.022Z,16.18
2023-06-07T04:07:54.379Z,16.01
2023-06-07T04:10:20.854Z,15.85
2023-06-07T04:12:47.294Z,16.10
2023-06-07T04:15:13.718Z,16.27
2023-06-07T04:17:40.354Z,16.02
2023-06-07T04:20:06.782Z,15.83
2023-06-07T04:22:33.203Z,15.75
2023-06-07T04:25:00.321Z,15.79
2023-06-07T04:27:26.726Z,15.84
2023-06-07T04:29:53.226Z,16.06
2023-06-07T04:32:19.825Z,15.71
2023-06-07T04:34:46.603Z,15.67
2023-06-07T04:37:13.063Z,15.61
2023-06-07T04:39:39.406Z,15.74
2023-06-07T04:42:05.884Z,15.75
2023-06-07T04:44:32.390Z,15.83
2023-06-07T04:47:04.808Z,15.78
2023-06-07T04:49:34.800Z,15.95
2023-06-07T04:52:01.273Z,15.85
2023-06-07T04:54:28.012Z,15.71
2023-06-07T04:56:54.415Z,15.63
2023-06-07T04:59:21.020Z,15.75
2023-06-07T05:01:47.494Z,15.91
2023-06-07T05:04:13.958Z,15.93
2023-06-07T05:06:40.376Z,15.53
2023-06-07T05:09:06.884Z,15.55
2023-06-07T05:11:33.289Z,15.65
2023-06-07T05:13:59.688Z,15.51
2023-06-07T05:16:26.386Z,15.48
2023-06-07T05:18:52.905Z,15.63
2023-06-07T05:21:19.382Z,15.67
2023-06-07T05:23:46.205Z,15.49
2023-06-07T05:26:13.055Z,15.51
2023-06-07T05:28:39.536Z,15.80
2023-06-07T05:31:10.390Z,15.42
2023-06-07T05:33:41.005Z,15.39
2023-06-07T05:36:07.385Z,15.39
2023-06-07T05:38:34.466Z,15.69
2023-06-07T05:41:00.867Z,15.82
2023-06-07T05:43:27.357Z,15.87
2023-06-07T05:45:53.804Z,15.97
2023-06-07T05:48:20.173Z,16.00
2023-06-07T05:50:48.775Z,16.05
2023-06-07T05:53:15.232Z,16.07
2023-06-07T05:55:41.684Z,16.06
2023-06-07T05:58:08.119Z,16.09
2023-06-07T06:00:34.542Z,16.11
2023-06-07T06:03:03.357Z,16.23
2023-06-07T06:05:30.280Z,16.34
2023-06-07T06:07:56.764Z,16.30
2023-06-07T06:10:23.124Z,16.02
2023-06-07T06:12:49.595Z,16.47
2023-06-07T06:15:16.063Z,16.61
2023-06-07T06:17:42.687Z,16.37
2023-06-07T06:20:09.127Z,16.43
2023-06-07T06:22:35.507Z,16.51
2023-06-07T06:25:01.971Z,16.15
2023-06-07T06:27:28.427Z,16.38
2023-06-07T06:29:54.883Z,16.61
2023-06-07T06:32:23.423Z,16.90
2023-06-07T06:34:50.022Z,17.14
2023-06-07T06:37:16.477Z,17.34
2023-06-07T06:39:42.920Z,17.47
2023-06-07T06:42:10.506Z,17.36
2023-06-07T06:44:37.226Z,17.20
2023-06-07T06:47:04.184Z,17.20
2023-06-07T06:49:30.691Z,17.27
2023-06-07T06:51:57.173Z,17.24
2023-06-07T06:54:23.793Z,17.03
2023-06-07T06:56:50.204Z,16.98
2023-06-07T06:59:16.626Z,16.96
2023-06-07T07:01:43.145Z,17.26
2023-06-07T07:04:09.683Z,17.58
2023-06-07T07:06:36.638Z,17.60
2023-06-07T07:09:03.091Z,17.72
2023-06-07T07:11:31.700Z,17.56
2023-06-07T07:13:58.374Z,17.72
2023-06-07T07:16:25.072Z,17.30
2023-06-07T07:18:51.504Z,17.62
2023-06-07T07:21:17.919Z,17.76
2023-06-07T07:23:44.457Z,17.97
2023-06-07T07:26:10.895Z,17.60
2023-06-07T07:28:37.285Z,17.72
2023-06-07T07:31:03.768Z,17.72
2023-06-07T07:33:30.188Z,17.77
2023-06-07T07:35:56.839Z,17.07
2023-06-07T07:38:23.275Z,17.35
2023-06-07T07:40:49.729Z,17.37
2023-06-07T07:43:18.889Z,17.62
2023-06-07T07:45:45.434Z,17.71
2023-06-07T07:48:12.964Z,17.28
2023-06-07T07:50:39.447Z,17.66
2023-06-07T07:53:05.881Z,17.66
2023-06-07T07:55:32.320Z,17.62
2023-06-07T07:57:58.714Z,17.40
2023-06-07T08:00:25.340Z,17.05
2023-06-07T08:02:51.811Z,16.47
2023-06-07T08:05:18.558Z,16.67
2023-06-07T08:07:45.314Z,17.10
2023-06-07T08:10:11.756Z,17.24
2023-06-07T08:12:38.177Z,16.95
2023-06-07T08:15:04.615Z,16.84
2023-06-07T08:17:31.255Z,16.40
2023-06-07T08:19:58.671Z,16.70
2023-06-07T08:22:25.345Z,17.09
2023-06-07T08:24:51.737Z,16.39
2023-06-07T08:27:18.144Z,16.63
2023-06-07T08:29:44.738Z,16.79
2023-06-07T08:32:11.507Z,16.68
2023-06-07T08:34:37.940Z,16.56
2023-06-07T08:37:04.510Z,16.62
2023-06-07T08:39:30.972Z,16.90
2023-06-07T08:41:57.382Z,16.85
2023-06-07T08:44:23.831Z,17.13
2023-06-07T08:46:50.486Z,16.98
2023-06-07T08:49:17.045Z,17.28
2023-06-07T08:51:43.561Z,17.18
2023-06-07T08:54:10.045Z,16.75
2023-06-07T08:56:36.668Z,17.02
2023-06-07T08:59:03.088Z,17.34
2023-06-07T09:01:32.201Z,17.43
2023-06-07T09:03:59.074Z,17.41
2023-06-07T09:06:25.553Z,17.19
2023-06-07T09:08:52.107Z,17.41
2023-06-07T09:11:18.724Z,17.11
2023-06-07T09:13:45.151Z,17.33
2023-06-07T09:16:12.073Z,17.48
2023-06-07T09:18:38.596Z,17.43
2023-06-07T09:21:05.298Z,17.68
2023-06-07T09:23:32.148Z,17.55
2023-06-07T09:25:58.655Z,17.34
2023-06-07T09:28:25.131Z,17.63
2023-06-07T09:30:51.545Z,17.78
2023-06-07T09:33:18.087Z,17.47
2023-06-07T09:35:44.541Z,17.32
2023-06-07T09:38:11.100Z,17.63
2023-06-07T09:40:37.694Z,17.95
2023-06-07T09:43:04.290Z,18.02
2023-06-07T09:45:31.081Z,17.72
2023-06-07T09:47:57.633Z,18.10
2023-06-07T09:50:24.076Z,17.69
2023-06-07T09:52:50.811Z,17.43
2023-06-07T09:55:19.162Z,17.74
2023-06-07T09:57:46.947Z,17.59
2023-06-07T10:00:13.351Z,17.30
2023-06-07T10:02:39.841Z,17.57
2023-06-07T10:05:06.644Z,17.86
2023-06-07T10:07:33.511Z,17.87
2023-06-07T10:10:00.001Z,17.42
2023-06-07T10:12:26.725Z,17.72
2023-06-07T10:14:53.486Z,18.33
2023-06-07T10:17:20.104Z,18.39
2023-06-07T10:19:46.745Z,18.31
2023-06-07T10:22:13.169Z,18.50
2023-06-07T10:24:39.570Z,18.52
2023-06-07T10:27:06.009Z,18.82
2023-06-07T10:29:32.377Z,18.53
2023-06-07T10:31:59.233Z,18.58
2023-06-07T10:34:26.086Z,18.86
2023-06-07T10:36:52.703Z,18.53
2023-06-07T10:39:19.729Z,18.23
2023-06-07T10:41:46.201Z,17.94
2023-06-07T10:44:12.776Z,18.07
2023-06-07T10:46:39.412Z,18.17
2023-06-07T10:49:06.954Z,18.14
2023-06-07T10:51:33.415Z,17.57
2023-06-07T10:54:00.141Z,17.79
2023-06-07T10:56:26.690Z,18.19
2023-06-07T10:58:53.110Z,18.17
2023-06-07T11:01:19.876Z,18.49
2023-06-07T11:03:46.654Z,18.13
2023-06-07T11:06:13.135Z,18.03
2023-06-07T11:08:39.625Z,18.42
2023-06-07T11:11:06.309Z,18.42
2023-06-07T11:13:33.061Z,18.65
2023-06-07T11:15:59.637Z,18.91
2023-06-07T11:18:26.419Z,19.06
2023-06-07T11:20:53.707Z,19.40
2023-06-07T11:23:20.277Z,19.52
2023-06-07T11:25:46.991Z,18.50
2023-06-07T11:28:13.378Z,18.53
2023-06-07T11:30:55.214Z,18.54
2023-06-07T11:33:21.857Z,18.25
2023-06-07T11:35:48.498Z,18.69
2023-06-07T11:38:15.103Z,19.33
2023-06-07T11:40:41.569Z,19.33
2023-06-07T11:43:08.104Z,19.09
2023-06-07T11:45:34.760Z,19.22
2023-06-07T11:48:01.234Z,19.46
2023-06-07T11:50:27.748Z,19.90
2023-06-07T11:52:54.189Z,20.03
2023-06-07T11:55:20.593Z,19.98
2023-06-07T11:57:47.003Z,20.00
2023-06-07T12:00:13.361Z,19.45
2023-06-07T12:02:40.734Z,19.76
2023-06-07T12:05:07.116Z,19.62
2023-06-07T12:07:33.558Z,19.52
2023-06-07T12:10:00.272Z,19.92
2023-06-07T12:12:31.187Z,19.62
2023-06-07T12:14:57.863Z,19.85
2023-06-07T12:17:24.516Z,20.11
2023-06-07T12:19:51.327Z,20.17
2023-06-07T12:22:17.849Z,20.26
2023-06-07T12:24:44.263Z,20.17
2023-06-07T12:27:10.750Z,19.61
2023-06-07T12:29:37.212Z,19.90
2023-06-07T12:32:03.781Z,19.50
2023-06-07T12:34:30.269Z,19.71
2023-06-07T12:36:56.840Z,19.64
2023-06-07T12:39:23.565Z,20.37
2023-06-07T12:41:50.051Z,20.37
2023-06-07T12:44:16.540Z,20.41
2023-06-07T12:46:43.112Z,20.89
2023-06-07T12:49:09.728Z,21.05
2023-06-07T12:51:36.182Z,20.89
2023-06-07T12:54:02.724Z,20.98
2023-06-07T12:56:29.212Z,21.26
2023-06-07T12:58:55.756Z,21.14
2023-06-07T13:01:22.296Z,21.31
2023-06-07T13:03:48.875Z,21.12
2023-06-07T13:06:15.615Z,21.06
2023-06-07T13:08:42.169Z,21.39
2023-06-07T13:11:08.612Z,21.23
2023-06-07T13:13:35.056Z,21.31
2023-06-07T13:16:03.482Z,21.26
2023-06-07T13:18:30.134Z,21.11
2023-06-07T13:20:56.787Z,21.15
2023-06-07T13:23:23.149Z,21.24
2023-06-07T13:25:50.044Z,21.75
2023-06-07T13:28:18.505Z,21.78
2023-06-07T13:30:46.958Z,22.07
2023-06-07T13:33:13.494Z,22.23
2023-06-07T13:35:40.127Z,21.98
2023-06-07T13:38:06.491Z,22.17
2023-06-07T13:40:33.038Z,22.00
2023-06-07T13:42:59.511Z,21.92
2023-06-07T13:45:26.119Z,21.61
2023-06-07T13:47:52.657Z,21.78
2023-06-07T13:50:19.198Z,21.82
2023-06-07T13:52:45.724Z,21.97
2023-06-07T13:55:12.309Z,21.99
2023-06-07T13:57:38.706Z,22.02
2023-06-07T14:00:05.846Z,21.70
2023-06-07T14:02:32.678Z,21.67
2023-06-07T14:05:02.161Z,22.03
2023-06-07T14:07:29.433Z,21.87
2023-06-07T14:09:55.876Z,21.55
2023-06-07T14:12:22.394Z,21.16
2023-06-07T14:14:49.097Z,21.36
2023-06-07T14:17:15.513Z,21.50
2023-06-07T14:19:41.939Z,21.90
2023-06-07T14:22:08.384Z,22.08
2023-06-07T14:24:35.022Z,21.98
2023-06-07T14:27:01.530Z,21.78
2023-06-07T14:29:28.481Z,21.90
2023-06-07T14:31:54.874Z,22.13
2023-06-07T14:34:21.359Z,22.28
2023-06-07T14:36:47.897Z,22.45
2023-06-07T14:39:14.365Z,20.90
2023-06-07T14:41:40.787Z,20.54
2023-06-07T14:44:07.203Z,20.57
2023-06-07T14:46:33.639Z,20.68
2023-06-07T14:49:00.035Z,20.86
2023-06-07T14:51:27.248Z,20.88
2023-06-07T14:53:53.725Z,20.57
2023-06-07T14:56:20.625Z,20.56
2023-06-07T14:58:47.226Z,21.08
2023-06-07T15:01:13.919Z,20.55
2023-06-07T15:03:40.591Z,20.96
2023-06-07T15:06:07.059Z,21.22
2023-06-07T15:08:33.432Z,21.56
2023-06-07T15:10:59.869Z,21.82
2023-06-07T15:13:26.292Z,22.01
2023-06-07T15:15:52.878Z,22.20
2023-06-07T15:18:19.476Z,21.95
2023-06-07T15:20:45.876Z,22.03
2023-06-07T15:23:12.534Z,22.25
2023-06-07T15:25:39.056Z,22.40
2023-06-07T15:28:05.529Z,22.49
2023-06-07T15:30:31.933Z,22.48
2023-06-07T15:32:58.452Z,22.45
2023-06-07T15:35:24.915Z,22.50
2023-06-07T15:37:51.303Z,22.78
2023-06-07T15:40:18.734Z,22.86
2023-06-07T15:42:45.142Z,22.95
2023-06-07T15:45:11.608Z,23.02
2023-06-07T15:47:38.076Z,23.16
2023-06-07T15:50:05.256Z,23.37
2023-06-07T15:52:32.034Z,23.52
2023-06-07T15:54:58.573Z,23.57
2023-06-07T15:57:25.081Z,23.73
2023-06-07T15:59:51.486Z,23.88
2023-06-07T16:02:17.962Z,23.99
2023-06-07T16:04:44.636Z,23.94
2023-06-07T16:07:11.091Z,24.00
2023-06-07T16:09:37.488Z,23.86
2023-06-07T16:12:03.914Z,23.83
2023-06-07T16:14:30.492Z,23.83
2023-06-07T16:16:57.019Z,23.74
2023-06-07T16:19:31.083Z,23.46
2023-06-07T16:21:57.530Z,23.47
2023-06-07T16:24:24.308Z,23.33
2023-06-07T16:26:50.697Z,23.22
2023-06-07T16:29:17.119Z,23.12
2023-06-07T16:31:43.625Z,23.04
2023-06-07T16:34:10.122Z,22.95
2023-06-07T16:36:36.584Z,22.88
2023-06-07T16:39:03.016Z,22.78
2023-06-07T16:41:29.457Z,22.74
2023-06-07T16:43:55.965Z,22.66
2023-06-07T16:46:22.522Z,22.65
2023-06-07T16:48:49.031Z,22.59
2023-06-07T16:51:15.468Z,22.58
2023-06-07T16:53:41.897Z,22.60
2023-06-07T16:56:08.296Z,22.55
2023-06-07T16:58:34.685Z,22.47
2023-06-07T17:01:01.131Z,22.31
2023-06-07T17:03:27.994Z,22.25
2023-06-07T17:05:54.624Z,22.26
2023-06-07T17:08:21.061Z,22.19
2023-06-07T17:10:47.468Z,22.18
2023-06-07T17:13:13.856Z,22.08
2023-06-07T17:15:40.295Z,22.09
2023-06-07T17:18:06.773Z,22.12
2023-06-07T17:20:33.256Z,22.10
2023-06-07T17:22:59.803Z,22.10
2023-06-07T17:25:26.372Z,22.10
2023-06-07T17:27:52.788Z,22.12
2023-06-07T17:30:21.379Z,22.10
2023-06-07T17:32:47.804Z,22.01
2023-06-07T17:35:14.376Z,21.94
2023-06-07T17:37:40.851Z,21.93
2023-06-07T17:40:07.853Z,21.92
2023-06-07T17:42:34.531Z,21.88
2023-06-07T17:45:01.028Z,21.91
2023-06-07T17:47:27.490Z,21.87
2023-06-07T17:49:54.084Z,21.68
2023-06-07T17:52:22.996Z,21.72
2023-06-07T17:54:50.262Z,21.75
2023-06-07T17:57:16.997Z,21.74
2023-06-07T17:59:43.418Z,21.73
2023-06-07T18:02:09.914Z,21.58
2023-06-07T18:04:36.363Z,21.35
2023-06-07T18:07:03.770Z,20.94
2023-06-07T18:09:30.474Z,21.06
2023-06-07T18:11:57.030Z,21.06
2023-06-07T18:14:23.624Z,21.17
2023-06-07T18:16:50.078Z,21.19
2023-06-07T18:19:16.523Z,20.77
2023-06-07T18:21:42.946Z,20.72
2023-06-07T18:24:09.460Z,20.64
2023-06-07T18:26:36.092Z,20.79
2023-06-07T18:29:02.529Z,20.85
2023-06-07T18:31:29.058Z,20.99
2023-06-07T18:33:55.590Z,21.14
2023-06-07T18:36:22.505Z,21.15
2023-06-07T18:38:48.908Z,21.20
2023-06-07T18:41:15.664Z,21.22
2023-06-07T18:43:42.210Z,21.22
2023-06-07T18:46:09.125Z,21.23
2023-06-07T18:48:35.697Z,21.23
2023-06-07T18:51:02.324Z,21.23
2023-06-07T18:53:28.717Z,21.21
2023-06-07T18:55:55.422Z,21.20
2023-06-07T18:58:23.509Z,21.18
2023-06-07T19:00:50.826Z,21.18
2023-06-07T19:03:17.478Z,21.16
2023-06-07T19:05:44.033Z,21.13
2023-06-07T19:08:10.457Z,21.07
2023-06-07T19:10:36.913Z,20.92
2023-06-07T19:13:03.310Z,20.89
2023-06-07T19:15:29.744Z,20.71
2023-06-07T19:17:56.398Z,20.73
2023-06-07T19:20:23.064Z,20.74
2023-06-07T19:22:49.599Z,20.78
2023-06-07T19:25:16.305Z,20.50
2023-06-07T19:27:42.954Z,20.38
2023-06-07T19:30:09.900Z,20.53
2023-06-07T19:32:36.487Z,20.59
2023-06-07T19:35:05.270Z,20.43
2023-06-07T19:37:31.943Z,20.33
2023-06-07T19:39:58.474Z,20.29
2023-06-07T19:42:24.940Z,20.29
2023-06-07T19:44:51.461Z,20.38
2023-06-07T19:47:17.939Z,20.29
2023-06-07T19:49:44.469Z,20.13
2023-06-07T19:52:11.201Z,20.13
2023-06-07T19:54:37.710Z,20.18
2023-06-07T19:57:04.562Z,20.21
2023-06-07T19:59:30.981Z,20.26
2023-06-07T20:01:57.439Z,20.28
2023-06-07T20:04:24.100Z,20.34
2023-06-07T20:06:50.572Z,20.30
2023-06-07T20:09:16.998Z,20.30
2023-06-07T20:11:43.634Z,20.28
2023-06-07T20:14:10.116Z,20.23
2023-06-07T20:16:36.985Z,20.20
2023-06-07T20:19:03.494Z,20.12
2023-06-07T20:21:31.231Z,20.10
2023-06-07T20:23:57.627Z,20.17
2023-06-07T20:26:24.112Z,20.22
2023-06-07T20:28:50.869Z,20.16
2023-06-07T20:31:19.550Z,20.20
2023-06-07T20:33:48.098Z,19.95
2023-06-07T20:36:16.432Z,19.74
2023-06-07T20:38:43.609Z,19.71
2023-06-07T20:41:10.747Z,19.55
2023-06-07T20:43:38.007Z,19.35
2023-06-07T20:46:05.250Z,19.41
2023-06-07T20:48:32.260Z,19.44
2023-06-07T20:50:59.442Z,19.55
2023-06-07T20:53:26.666Z,19.51
2023-06-07T20:55:53.968Z,19.61
2023-06-07T20:58:22.074Z,19.44
2023-06-07T21:00:48.875Z,19.36
2023-06-07T21:03:15.543Z,19.51
2023-06-07T21:05:42.342Z,19.45
2023-06-07T21:08:08.733Z,19.42
2023-06-07T21:10:36.043Z,19.49
2023-06-07T21:13:02.682Z,19.52
2023-06-07T21:15:29.102Z,19.05
2023-06-07T21:17:55.588Z,19.01
2023-06-07T21:20:23.095Z,19.11
2023-06-07T21:22:49.718Z,19.05
2023-06-07T21:25:16.204Z,19.18
2023-06-07T21:27:42.987Z,19.09
2023-06-07T21:30:09.738Z,19.02
2023-06-07T21:32:36.702Z,19.10
2023-06-07T21:35:03.130Z,19.24
2023-06-07T21:37:30.158Z,19.30
2023-06-07T21:39:56.736Z,19.25
2023-06-07T21:42:23.284Z,19.10
2023-06-07T21:44:49.707Z,18.77
2023-06-07T21:47:16.273Z,18.76
2023-06-07T21:49:42.683Z,18.89
2023-06-07T21:52:09.876Z,18.95
2023-06-07T21:54:36.251Z,18.98
2023-06-07T21:57:03.092Z,18.84
2023-06-07T21:59:29.764Z,18.80
2023-06-07T22:01:56.273Z,18.86
2023-06-07T22:04:22.712Z,18.99
2023-06-07T22:06:49.223Z,18.88
2023-06-07T22:09:15.674Z,18.79
2023-06-07T22:11:42.625Z,18.83
2023-06-07T22:14:09.249Z,18.67
2023-06-07T22:16:35.681Z,18.74
2023-06-07T22:19:02.724Z,18.82
2023-06-07T22:21:29.702Z,18.88
2023-06-07T22:23:56.173Z,18.91
2023-06-07T22:26:22.898Z,18.96
2023-06-07T22:28:49.413Z,18.75
2023-06-07T22:31:16.131Z,18.79
2023-06-07T22:33:42.597Z,18.83
2023-06-07T22:36:10.012Z,18.91
2023-06-07T22:38:37.744Z,18.94
2023-06-07T22:41:04.682Z,18.96
2023-06-07T22:43:31.179Z,18.97
2023-06-07T22:45:58.535Z,18.96
2023-06-07T22:48:25.067Z,18.98
2023-06-07T22:50:51.602Z,18.96
2023-06-07T22:53:20.218Z,18.81
2023-06-07T22:55:46.714Z,18.90
2023-06-07T22:58:13.675Z,18.91
2023-06-07T23:00:40.096Z,18.81
2023-06-07T23:03:08.027Z,18.80
2023-06-07T23:05:34.899Z,18.76
2023-06-07T23:08:01.374Z,18.73
2023-06-07T23:10:31.753Z,18.64
2023-06-07T23:13:01.416Z,18.63
2023-06-07T23:15:27.845Z,18.66
2023-06-07T23:17:54.457Z,18.59
2023-06-07T23:20:21.306Z,18.46
2023-06-07T23:22:47.880Z,18.43
2023-06-07T23:25:14.300Z,18.38
2023-06-07T23:27:41.441Z,18.41
2023-06-07T23:30:08.240Z,18.47
2023-06-07T23:32:35.297Z,18.41
2023-06-07T23:35:01.771Z,18.29
2023-06-07T23:37:28.241Z,18.05
2023-06-07T23:39:54.706Z,18.13
2023-06-07T23:42:21.145Z,18.18
2023-06-07T23:44:48.090Z,18.26
2023-06-07T23:47:15.228Z,18.26
2023-06-07T23:49:41.595Z,18.19
2023-06-07T23:52:09.329Z,18.04
2023-06-07T23:54:36.160Z,17.98
2023-06-07T23:57:02.651Z,17.90
2023-06-07T23:59:30.079Z,17.85
